createdAt,value
2022-12-08T00:00:46.482Z,18.95
2022-12-08T00:01:50.350Z,16.45
2022-12-08T00:02:53.364Z,20.23
2022-12-08T00:03:57.653Z,18.05
2022-12-08T00:05:18.842Z,17.58
2022-12-08T00:06:44.431Z,16.52
2022-12-08T00:08:05.465Z,17.45
2022-12-08T00:09:23.690Z,17.08
2022-12-08T00:10:48.386Z,16.40
2022-12-08T00:11:50.802Z,18.25
2022-12-08T00:12:54.900Z,19.63
2022-12-08T00:13:58.938Z,18.42
2022-12-08T00:15:03.048Z,17.88
2022-12-08T00:16:06.368Z,18.55
2022-12-08T00:17:11.807Z,16.60
2022-12-08T00:18:14.487Z,18.00
2022-12-08T00:19:18.214Z,18.55
2022-12-08T00:20:20.930Z,16.25
2022-12-08T00:21:24.618Z,18.13
2022-12-08T00:22:29.373Z,16.33
2022-12-08T00:23:33.139Z,18.52
2022-12-08T00:24:38.669Z,17.58
2022-12-08T00:25:42.429Z,18.67
2022-12-08T00:26:46.166Z,19.73
2022-12-08T00:27:48.788Z,18.02
2022-12-08T00:28:57.044Z,18.75
2022-12-08T00:29:59.737Z,16.25
2022-12-08T00:31:09.799Z,17.83
2022-12-08T00:32:13.613Z,16.15
2022-12-08T00:33:16.337Z,16.42
2022-12-08T00:34:20.076Z,20.45
2022-12-08T00:35:22.837Z,17.52
2022-12-08T00:36:26.653Z,18.25
2022-12-08T00:37:29.487Z,17.67
2022-12-08T00:38:33.230Z,17.73
2022-12-08T00:39:36.936Z,18.23
2022-12-08T00:40:44.445Z,19.48
2022-12-08T00:42:05.718Z,19.05
2022-12-08T00:43:09.439Z,16.55
2022-12-08T00:44:14.811Z,19.35
2022-12-08T00:45:18.723Z,17.00
2022-12-08T00:46:21.411Z,16.40
2022-12-08T00:47:25.292Z,17.48
2022-12-08T00:48:28.037Z,16.23
2022-12-08T00:49:31.789Z,17.52
2022-12-08T00:50:34.519Z,15.80
2022-12-08T00:51:38.468Z,16.13
2022-12-08T00:52:41.121Z,16.50
2022-12-08T00:53:44.761Z,16.83
2022-12-08T00:54:47.467Z,16.58
2022-12-08T00:55:51.137Z,20.15
2022-12-08T00:56:53.817Z,17.50
2022-12-08T00:57:57.527Z,19.05
2022-12-08T00:59:00.389Z,17.38
2022-12-08T01:00:06.898Z,19.45
2022-12-08T01:01:11.059Z,15.48
2022-12-08T01:02:14.820Z,16.30
2022-12-08T01:03:17.598Z,16.25
2022-12-08T01:04:21.617Z,16.42
2022-12-08T01:05:24.286Z,18.13
2022-12-08T01:06:28.148Z,17.75
2022-12-08T01:07:30.841Z,16.27
2022-12-08T01:08:34.789Z,16.85
2022-12-08T01:09:37.516Z,18.02
2022-12-08T01:10:41.326Z,19.27
2022-12-08T01:11:44.879Z,16.42
2022-12-08T01:12:48.552Z,14.50
2022-12-08T01:13:51.241Z,21.30
2022-12-08T01:14:59.196Z,16.33
2022-12-08T01:16:06.390Z,17.08
2022-12-08T01:17:10.282Z,15.20
2022-12-08T01:18:14.090Z,15.20
2022-12-08T01:19:17.318Z,15.88
2022-12-08T01:20:21.029Z,15.55
2022-12-08T01:21:23.720Z,16.33
2022-12-08T01:22:27.526Z,15.95
2022-12-08T01:23:30.330Z,16.17
2022-12-08T01:24:34.184Z,18.58
2022-12-08T01:25:36.810Z,14.85
2022-12-08T01:26:40.594Z,16.35
2022-12-08T01:27:43.239Z,16.67
2022-12-08T01:28:48.237Z,19.30
2022-12-08T01:29:52.092Z,17.75
2022-12-08T01:30:54.785Z,18.80
2022-12-08T01:31:59.984Z,15.77
2022-12-08T01:33:02.604Z,18.80
2022-12-08T01:34:06.569Z,15.75
2022-12-08T01:35:09.810Z,18.27
2022-12-08T01:36:21.688Z,16.27
2022-12-08T01:37:25.532Z,18.52
2022-12-08T01:38:28.365Z,16.92
2022-12-08T01:39:32.128Z,17.83
2022-12-08T01:40:34.838Z,18.25
2022-12-08T01:41:39.559Z,15.60
2022-12-08T01:42:42.257Z,16.08
2022-12-08T01:43:56.036Z,15.02
2022-12-08T01:45:01.596Z,16.90
2022-12-08T01:46:04.440Z,14.00
2022-12-08T01:47:09.632Z,17.88
2022-12-08T01:48:18.115Z,14.10
2022-12-08T01:49:23.898Z,14.70
2022-12-08T01:50:29.238Z,16.13
2022-12-08T01:51:35.588Z,14.40
2022-12-08T01:52:42.218Z,13.98
2022-12-08T01:53:45.087Z,16.38
2022-12-08T01:54:51.968Z,15.60
2022-12-08T01:55:56.732Z,15.90
2022-12-08T01:57:02.667Z,15.93
2022-12-08T01:58:11.816Z,16.23
2022-12-08T01:59:15.608Z,15.75
2022-12-08T02:00:20.467Z,17.15
2022-12-08T02:01:24.315Z,17.30
2022-12-08T02:02:31.294Z,15.20
2022-12-08T02:03:40.048Z,17.65
2022-12-08T02:04:42.979Z,17.80
2022-12-08T02:05:47.869Z,15.02
2022-12-08T02:06:51.627Z,15.27
2022-12-08T02:07:56.274Z,14.88
2022-12-08T02:09:00.450Z,13.60
2022-12-08T02:10:05.809Z,15.68
2022-12-08T02:11:10.100Z,14.45
2022-12-08T02:12:13.877Z,15.05
2022-12-08T02:13:17.897Z,15.55
2022-12-08T02:14:21.637Z,14.25
2022-12-08T02:15:32.343Z,16.42
2022-12-08T02:16:42.436Z,12.98
2022-12-08T02:17:55.456Z,14.73
2022-12-08T02:19:30.318Z,12.60
2022-12-08T02:20:46.167Z,16.17
2022-12-08T02:21:55.012Z,16.80
2022-12-08T02:23:03.297Z,13.52
2022-12-08T02:24:12.069Z,15.50
2022-12-08T02:25:22.567Z,13.23
2022-12-08T02:27:01.545Z,16.38
2022-12-08T02:28:12.579Z,13.63
2022-12-08T02:29:49.936Z,15.93
2022-12-08T02:31:03.344Z,13.65
2022-12-08T02:32:22.105Z,15.27
2022-12-08T02:33:55.244Z,12.95
2022-12-08T02:35:03.607Z,14.48
2022-12-08T02:36:09.029Z,14.75
2022-12-08T02:37:18.284Z,14.65
2022-12-08T02:38:25.148Z,14.70
2022-12-08T02:39:37.606Z,17.45
2022-12-08T02:40:46.587Z,13.65
2022-12-08T02:41:54.376Z,14.95
2022-12-08T02:43:02.259Z,15.02
2022-12-08T02:44:11.276Z,16.67
2022-12-08T02:45:23.920Z,14.93
2022-12-08T02:46:31.794Z,17.35
2022-12-08T02:47:36.210Z,15.57
2022-12-08T02:48:39.449Z,15.13
2022-12-08T02:49:43.400Z,15.10
2022-12-08T02:50:47.468Z,14.35
2022-12-08T02:51:51.268Z,16.50
2022-12-08T02:52:53.973Z,15.38
2022-12-08T02:53:58.080Z,15.95
2022-12-08T02:55:04.275Z,16.55
2022-12-08T02:56:15.899Z,18.27
2022-12-08T02:57:29.145Z,15.85
2022-12-08T02:58:57.167Z,14.15
2022-12-08T03:00:08.461Z,15.40
2022-12-08T03:01:22.649Z,17.13
2022-12-08T03:02:42.505Z,15.90
2022-12-08T03:03:49.119Z,16.45
2022-12-08T03:04:55.871Z,16.98
2022-12-08T03:06:08.469Z,16.42
2022-12-08T03:07:15.927Z,16.17
2022-12-08T03:08:24.861Z,17.48
2022-12-08T03:09:34.368Z,15.23
2022-12-08T03:10:42.086Z,16.92
2022-12-08T03:11:48.725Z,15.48
2022-12-08T03:12:56.006Z,15.75
2022-12-08T03:14:01.208Z,15.98
2022-12-08T03:15:09.729Z,15.77
2022-12-08T03:16:15.659Z,13.60
2022-12-08T03:17:22.110Z,15.23
2022-12-08T03:18:29.308Z,15.40
2022-12-08T03:19:35.541Z,16.33
2022-12-08T03:20:39.176Z,16.52
2022-12-08T03:21:46.028Z,15.07
2022-12-08T03:22:50.038Z,14.45
2022-12-08T03:23:55.694Z,16.13
2022-12-08T03:24:58.677Z,15.50
2022-12-08T03:26:08.689Z,17.95
2022-12-08T03:27:13.249Z,17.05
2022-12-08T03:28:17.167Z,16.33
2022-12-08T03:29:19.918Z,15.43
2022-12-08T03:30:23.630Z,15.77
2022-12-08T03:31:28.555Z,16.08
2022-12-08T03:32:37.266Z,16.02
2022-12-08T03:33:42.045Z,18.25
2022-12-08T03:34:48.340Z,16.38
2022-12-08T03:35:51.247Z,16.52
2022-12-08T03:36:56.388Z,17.65
2022-12-08T03:38:03.705Z,16.60
2022-12-08T03:39:07.478Z,15.98
2022-12-08T03:40:14.806Z,16.77
2022-12-08T03:41:21.299Z,16.13
2022-12-08T03:42:24.031Z,18.30
2022-12-08T03:43:27.853Z,16.95
2022-12-08T03:44:31.627Z,18.92
2022-12-08T03:45:34.561Z,15.27
2022-12-08T03:46:38.298Z,16.80
2022-12-08T03:47:40.979Z,16.23
2022-12-08T03:48:47.917Z,17.27
2022-12-08T03:49:51.681Z,16.98
2022-12-08T03:50:54.340Z,14.55
2022-12-08T03:52:00.356Z,15.27
2022-12-08T03:53:03.005Z,16.40
2022-12-08T03:54:06.809Z,17.67
2022-12-08T03:55:13.128Z,15.82
2022-12-08T03:56:21.368Z,14.57
2022-12-08T03:57:24.004Z,16.27
2022-12-08T03:58:30.773Z,16.45
2022-12-08T03:59:35.648Z,18.02
2022-12-08T04:00:39.292Z,14.63
2022-12-08T04:01:42.038Z,16.48
2022-12-08T04:02:45.947Z,16.27
2022-12-08T04:03:48.757Z,16.05
2022-12-08T04:04:53.469Z,16.63
2022-12-08T04:05:56.854Z,17.63
2022-12-08T04:07:02.779Z,17.30
2022-12-08T04:08:07.033Z,16.83
2022-12-08T04:09:13.738Z,14.25
2022-12-08T04:10:16.458Z,15.65
2022-12-08T04:11:20.912Z,16.58
2022-12-08T04:12:24.678Z,16.55
2022-12-08T04:13:28.887Z,18.83
2022-12-08T04:14:31.540Z,17.73
2022-12-08T04:15:35.328Z,15.88
2022-12-08T04:16:39.409Z,16.40
2022-12-08T04:17:42.982Z,18.27
2022-12-08T04:18:47.299Z,14.95
2022-12-08T04:19:50.289Z,18.55
2022-12-08T04:20:54.469Z,15.35
2022-12-08T04:21:58.301Z,14.25
2022-12-08T04:23:02.969Z,19.40
2022-12-08T04:24:07.371Z,18.20
2022-12-08T04:25:13.065Z,15.20
2022-12-08T04:26:17.669Z,19.33
2022-12-08T04:27:20.537Z,16.52
2022-12-08T04:28:24.498Z,17.10
2022-12-08T04:29:29.059Z,17.33
2022-12-08T04:30:32.198Z,19.20
2022-12-08T04:31:36.012Z,17.63
2022-12-08T04:32:47.099Z,17.23
2022-12-08T04:33:51.255Z,17.27
2022-12-08T04:34:55.181Z,16.80
2022-12-08T04:36:00.498Z,16.63
2022-12-08T04:37:07.308Z,16.77
2022-12-08T04:38:11.510Z,18.55
2022-12-08T04:39:15.190Z,17.45
2022-12-08T04:40:18.648Z,16.13
2022-12-08T04:41:22.381Z,19.73
2022-12-08T04:42:26.324Z,17.75
2022-12-08T04:43:30.499Z,17.55
2022-12-08T04:44:33.389Z,16.33
2022-12-08T04:45:37.140Z,20.20
2022-12-08T04:46:43.389Z,15.90
2022-12-08T04:47:50.285Z,15.75
2022-12-08T04:48:54.049Z,16.33
2022-12-08T04:49:56.853Z,14.25
2022-12-08T04:51:00.609Z,17.60
2022-12-08T04:52:03.338Z,17.67
2022-12-08T04:53:07.635Z,16.80
2022-12-08T04:54:11.783Z,16.40
2022-12-08T04:55:15.975Z,16.98
2022-12-08T04:56:20.065Z,17.27
2022-12-08T04:57:23.898Z,13.80
2022-12-08T04:58:26.646Z,16.00
2022-12-08T04:59:30.417Z,17.08
2022-12-08T05:00:33.859Z,14.50
2022-12-08T05:01:37.635Z,15.18
2022-12-08T05:02:40.721Z,18.42
2022-12-08T05:03:44.594Z,15.55
2022-12-08T05:04:47.836Z,16.33
2022-12-08T05:05:51.817Z,14.43
2022-12-08T05:06:54.467Z,18.13
2022-12-08T05:08:01.112Z,15.63
2022-12-08T05:09:03.877Z,15.50
2022-12-08T05:10:10.327Z,17.90
2022-12-08T05:11:15.399Z,16.50
2022-12-08T05:12:18.411Z,15.45
2022-12-08T05:13:22.250Z,15.95
2022-12-08T05:14:25.125Z,13.38
2022-12-08T05:15:29.380Z,16.58
2022-12-08T05:16:32.097Z,15.90
2022-12-08T05:17:36.147Z,17.35
2022-12-08T05:18:39.798Z,20.45
2022-12-08T05:19:43.447Z,15.93
2022-12-08T05:20:46.079Z,17.02
2022-12-08T05:21:50.229Z,17.40
2022-12-08T05:22:52.919Z,15.55
2022-12-08T05:23:57.032Z,18.13
2022-12-08T05:24:59.775Z,17.67
2022-12-08T05:26:05.247Z,15.82
2022-12-08T05:27:08.295Z,15.48
2022-12-08T05:28:40.067Z,16.02
2022-12-08T05:29:38.848Z,17.80
2022-12-08T05:30:42.839Z,15.93
2022-12-08T05:31:46.723Z,17.40
2022-12-08T05:32:49.761Z,17.90
2022-12-08T05:33:54.014Z,16.85
2022-12-08T05:34:56.851Z,18.20
2022-12-08T05:36:00.857Z,16.63
2022-12-08T05:37:03.548Z,17.30
2022-12-08T05:38:07.879Z,19.13
2022-12-08T05:39:13.980Z,16.20
2022-12-08T05:40:18.268Z,16.63
2022-12-08T05:41:22.777Z,17.33
2022-12-08T05:42:26.669Z,14.35
2022-12-08T05:43:29.668Z,15.60
2022-12-08T05:44:33.388Z,15.43
2022-12-08T05:45:36.069Z,18.90
2022-12-08T05:46:39.990Z,15.88
2022-12-08T05:47:43.190Z,16.95
2022-12-08T05:48:47.163Z,16.48
2022-12-08T05:49:50.051Z,18.15
2022-12-08T05:50:53.817Z,15.05
2022-12-08T05:51:56.527Z,16.70
2022-12-08T05:53:00.298Z,16.85
2022-12-08T05:54:03.138Z,19.02
2022-12-08T05:55:07.741Z,18.15
2022-12-08T05:56:12.352Z,18.63
2022-12-08T05:57:16.558Z,20.15
2022-12-08T05:58:21.308Z,16.85
2022-12-08T05:59:23.987Z,16.63
2022-12-08T06:00:27.806Z,17.52
2022-12-08T06:01:31.822Z,18.33
2022-12-08T06:02:36.007Z,18.98
2022-12-08T06:03:38.878Z,17.45
2022-12-08T06:04:42.899Z,17.05
2022-12-08T06:05:46.892Z,19.70
2022-12-08T06:06:51.202Z,20.70
2022-12-08T06:07:55.049Z,17.33
2022-12-08T06:08:57.846Z,18.27
2022-12-08T06:10:01.790Z,16.75
2022-12-08T06:11:04.660Z,19.90
2022-12-08T06:12:08.889Z,20.52
2022-12-08T06:13:13.070Z,16.88
2022-12-08T06:14:16.766Z,17.83
2022-12-08T06:15:19.438Z,17.23
2022-12-08T06:16:23.329Z,22.45
2022-12-08T06:17:26.027Z,19.73
2022-12-08T06:18:32.880Z,16.98
2022-12-08T06:19:35.757Z,17.75
2022-12-08T06:20:39.638Z,20.73
2022-12-08T06:21:43.337Z,19.67
2022-12-08T06:22:46.118Z,22.13
2022-12-08T06:23:50.807Z,18.95
2022-12-08T06:24:53.387Z,21.35
2022-12-08T06:25:57.156Z,20.25
2022-12-08T06:26:59.838Z,20.92
2022-12-08T06:28:03.520Z,25.02
2022-12-08T06:29:08.642Z,25.13
2022-12-08T06:30:11.868Z,22.92
2022-12-08T06:31:17.952Z,21.48
2022-12-08T06:32:25.819Z,22.83
2022-12-08T06:33:31.077Z,23.65
2022-12-08T06:34:34.808Z,24.58
2022-12-08T06:35:37.828Z,23.83
2022-12-08T06:36:41.557Z,22.75
2022-12-08T06:37:44.218Z,24.48
2022-12-08T06:38:48.141Z,26.20
2022-12-08T06:39:50.879Z,22.65
2022-12-08T06:40:56.175Z,23.40
2022-12-08T06:42:17.216Z,21.13
2022-12-08T06:43:20.948Z,25.27
2022-12-08T06:44:25.188Z,23.60
2022-12-08T06:45:29.032Z,26.83
2022-12-08T06:46:32.982Z,27.30
2022-12-08T06:47:35.786Z,23.85
2022-12-08T06:48:39.533Z,24.95
2022-12-08T06:49:42.250Z,24.60
2022-12-08T06:50:46.123Z,28.17
2022-12-08T06:51:48.822Z,21.80
2022-12-08T06:53:02.821Z,23.55
2022-12-08T06:54:08.738Z,25.45
2022-12-08T06:55:24.615Z,22.77
2022-12-08T06:56:35.618Z,24.98
2022-12-08T06:57:38.499Z,23.02
2022-12-08T06:58:45.055Z,22.20
2022-12-08T06:59:54.004Z,21.50
2022-12-08T07:00:56.824Z,24.63
2022-12-08T07:02:00.763Z,24.23
2022-12-08T07:03:03.551Z,27.73
2022-12-08T07:04:07.340Z,24.33
2022-12-08T07:05:10.009Z,21.90
2022-12-08T07:06:17.338Z,23.45
2022-12-08T07:07:20.000Z,27.10
2022-12-08T07:08:23.799Z,28.05
2022-12-08T07:09:27.574Z,24.30
2022-12-08T07:10:30.188Z,23.90
2022-12-08T07:11:33.968Z,30.02
2022-12-08T07:12:36.598Z,24.17
2022-12-08T07:13:40.519Z,26.83
2022-12-08T07:14:43.209Z,18.10
2022-12-08T07:15:48.308Z,21.38
2022-12-08T07:16:52.446Z,21.25
2022-12-08T07:17:59.834Z,23.75
2022-12-08T07:19:04.145Z,19.95
2022-12-08T07:20:08.229Z,18.92
2022-12-08T07:21:15.028Z,19.02
2022-12-08T07:22:18.857Z,20.52
2022-12-08T07:23:22.549Z,16.88
2022-12-08T07:24:26.285Z,21.25
2022-12-08T07:25:28.951Z,16.67
2022-12-08T07:26:32.739Z,21.67
2022-12-08T07:27:35.429Z,18.40
2022-12-08T07:28:41.540Z,17.73
2022-12-08T07:29:44.207Z,19.75
2022-12-08T07:30:49.395Z,18.58
2022-12-08T07:31:52.154Z,16.15
2022-12-08T07:32:55.925Z,18.50
2022-12-08T07:33:59.831Z,20.23
2022-12-08T07:35:02.565Z,19.73
2022-12-08T07:36:07.318Z,20.15
2022-12-08T07:37:10.002Z,23.60
2022-12-08T07:38:13.821Z,20.75
2022-12-08T07:39:16.522Z,20.42
2022-12-08T07:40:20.280Z,20.48
2022-12-08T07:41:25.519Z,19.52
2022-12-08T07:42:29.406Z,21.58
2022-12-08T07:43:32.370Z,18.55
2022-12-08T07:44:36.046Z,19.08
2022-12-08T07:45:38.688Z,16.98
2022-12-08T07:46:43.833Z,18.55
2022-12-08T07:47:46.640Z,19.00
2022-12-08T07:48:50.346Z,17.85
2022-12-08T07:49:54.035Z,20.88
2022-12-08T07:51:01.482Z,20.20
2022-12-08T07:52:05.339Z,20.77
2022-12-08T07:53:08.219Z,20.98
2022-12-08T07:54:13.060Z,21.98
2022-12-08T07:55:16.816Z,22.45
2022-12-08T07:56:19.471Z,24.17
2022-12-08T07:57:23.183Z,21.75
2022-12-08T07:58:26.014Z,23.05
2022-12-08T07:59:29.850Z,22.73
2022-12-08T08:00:32.560Z,23.05
2022-12-08T08:01:36.715Z,20.92
2022-12-08T08:02:41.992Z,21.13
2022-12-08T08:03:44.739Z,20.85
2022-12-08T08:04:51.579Z,37.75
2022-12-08T08:05:54.325Z,20.30
2022-12-08T08:06:58.233Z,25.15
2022-12-08T08:08:02.000Z,22.85
2022-12-08T08:09:06.112Z,23.23
2022-12-08T08:10:11.005Z,20.23
2022-12-08T08:11:20.806Z,22.00
2022-12-08T08:12:33.191Z,20.00
2022-12-08T08:13:37.408Z,22.63
2022-12-08T08:14:40.089Z,22.90
2022-12-08T08:15:43.946Z,19.73
2022-12-08T08:16:47.850Z,24.95
2022-12-08T08:17:52.676Z,20.10
2022-12-08T08:18:56.501Z,23.15
2022-12-08T08:20:00.324Z,19.83
2022-12-08T08:21:22.207Z,20.63
2022-12-08T08:22:27.023Z,25.40
2022-12-08T08:23:29.909Z,24.23
2022-12-08T08:24:33.721Z,23.33
2022-12-08T08:25:36.428Z,18.92
2022-12-08T08:26:40.108Z,19.08
2022-12-08T08:27:44.138Z,21.35
2022-12-08T08:28:48.328Z,18.90
2022-12-08T08:29:52.040Z,20.48
2022-12-08T08:30:55.193Z,19.85
2022-12-08T08:31:58.979Z,17.10
2022-12-08T08:33:03.040Z,17.60
2022-12-08T08:34:06.807Z,20.65
2022-12-08T08:35:11.239Z,20.63
2022-12-08T08:36:14.919Z,18.23
2022-12-08T08:37:17.729Z,17.67
2022-12-08T08:38:21.979Z,19.45
2022-12-08T08:39:26.095Z,22.33
2022-12-08T08:40:29.872Z,16.77
2022-12-08T08:41:32.508Z,19.95
2022-12-08T08:42:36.328Z,19.50
2022-12-08T08:43:39.207Z,18.38
2022-12-08T08:44:42.918Z,17.33
2022-12-08T08:45:45.677Z,19.10
2022-12-08T08:46:49.435Z,16.40
2022-12-08T08:47:52.172Z,19.90
2022-12-08T08:48:57.612Z,18.40
2022-12-08T08:50:00.319Z,18.70
2022-12-08T08:51:09.129Z,18.55
2022-12-08T08:52:12.868Z,19.08
2022-12-08T08:53:15.563Z,20.67
2022-12-08T08:54:19.209Z,20.02
2022-12-08T08:55:22.980Z,21.70
2022-12-08T08:56:25.935Z,21.10
2022-12-08T08:57:29.757Z,22.55
2022-12-08T08:58:32.417Z,21.08
2022-12-08T08:59:36.211Z,21.88
2022-12-08T09:00:38.898Z,22.63
2022-12-08T09:01:42.721Z,23.50
2022-12-08T09:02:46.519Z,23.77
2022-12-08T09:03:50.588Z,21.90
2022-12-08T09:04:55.789Z,23.15
2022-12-08T09:05:58.618Z,23.48
2022-12-08T09:07:02.320Z,20.48
2022-12-08T09:08:05.228Z,24.20
2022-12-08T09:09:08.999Z,27.10
2022-12-08T09:10:12.037Z,21.63
2022-12-08T09:11:15.898Z,22.00
2022-12-08T09:12:18.521Z,23.42
2022-12-08T09:13:22.495Z,21.40
2022-12-08T09:14:26.288Z,21.70
2022-12-08T09:15:30.262Z,21.15
2022-12-08T09:16:37.443Z,20.95
2022-12-08T09:17:44.200Z,23.48
2022-12-08T09:18:48.459Z,21.50
2022-12-08T09:19:52.223Z,22.17
2022-12-08T09:20:56.575Z,23.15
2022-12-08T09:22:00.349Z,26.52
2022-12-08T09:23:04.038Z,23.70
2022-12-08T09:24:07.261Z,22.52
2022-12-08T09:25:11.558Z,23.02
2022-12-08T09:26:15.299Z,26.63
2022-12-08T09:27:19.021Z,22.88
2022-12-08T09:28:22.750Z,22.55
2022-12-08T09:29:31.061Z,23.75
2022-12-08T09:30:37.859Z,23.67
2022-12-08T09:31:41.779Z,22.08
2022-12-08T09:32:45.598Z,20.42
2022-12-08T09:33:48.459Z,20.23
2022-12-08T09:34:52.511Z,21.88
2022-12-08T09:35:57.927Z,22.92
2022-12-08T09:37:01.624Z,22.85
2022-12-08T09:38:05.348Z,21.20
2022-12-08T09:39:08.027Z,24.08
2022-12-08T09:40:14.510Z,18.10
2022-12-08T09:41:30.812Z,21.20
2022-12-08T09:42:44.549Z,18.88
2022-12-08T09:43:57.254Z,19.77
2022-12-08T09:45:05.341Z,18.90
2022-12-08T09:46:11.194Z,18.67
2022-12-08T09:47:21.129Z,18.70
2022-12-08T09:48:27.472Z,19.48
2022-12-08T09:49:35.680Z,19.10
2022-12-08T09:50:41.762Z,20.02
2022-12-08T09:51:46.128Z,21.00
2022-12-08T09:52:59.226Z,17.42
2022-12-08T09:54:05.764Z,19.38
2022-12-08T09:55:15.018Z,18.88
2022-12-08T09:56:21.237Z,21.35
2022-12-08T09:57:24.788Z,20.02
2022-12-08T09:58:33.869Z,18.17
2022-12-08T09:59:37.781Z,18.83
2022-12-08T10:00:41.510Z,19.10
2022-12-08T10:01:45.411Z,19.35
2022-12-08T10:02:49.168Z,20.80
2022-12-08T10:03:54.989Z,22.08
2022-12-08T10:04:59.113Z,20.88
2022-12-08T10:06:08.701Z,18.27
2022-12-08T10:07:18.104Z,16.33
2022-12-08T10:08:25.505Z,18.00
2022-12-08T10:09:33.879Z,14.85
2022-12-08T10:10:41.207Z,17.35
2022-12-08T10:11:48.108Z,16.83
2022-12-08T10:12:56.268Z,19.77
2022-12-08T10:14:05.460Z,18.13
2022-12-08T10:15:24.090Z,16.88
2022-12-08T10:16:35.180Z,18.15
2022-12-08T10:17:41.342Z,18.27
2022-12-08T10:18:45.170Z,14.80
2022-12-08T10:19:49.030Z,16.15
2022-12-08T10:20:53.370Z,17.35
2022-12-08T10:21:58.449Z,17.13
2022-12-08T10:23:10.270Z,14.07
2022-12-08T10:24:20.008Z,19.48
2022-12-08T10:25:36.680Z,14.55
2022-12-08T10:26:40.918Z,16.45
2022-12-08T10:27:44.663Z,15.63
2022-12-08T10:28:48.680Z,17.50
2022-12-08T10:29:52.439Z,16.65
2022-12-08T10:30:56.595Z,14.18
2022-12-08T10:32:01.410Z,16.00
2022-12-08T10:33:04.610Z,15.27
2022-12-08T10:34:16.530Z,14.98
2022-12-08T10:35:21.598Z,15.05
2022-12-08T10:36:26.938Z,14.02
2022-12-08T10:37:29.770Z,13.88
2022-12-08T10:38:36.329Z,16.85
2022-12-08T10:39:40.454Z,17.35
2022-12-08T10:40:45.979Z,14.60
2022-12-08T10:41:49.723Z,15.07
2022-12-08T10:42:55.447Z,19.27
2022-12-08T10:44:01.748Z,13.43
2022-12-08T10:45:18.721Z,15.63
2022-12-08T10:46:26.045Z,14.27
2022-12-08T10:47:29.960Z,14.57
2022-12-08T10:48:34.127Z,18.30
2022-12-08T10:49:38.829Z,15.63
2022-12-08T10:50:44.750Z,18.23
2022-12-08T10:51:48.459Z,14.40
2022-12-08T10:52:57.295Z,15.40
2022-12-08T10:54:03.479Z,14.88
2022-12-08T10:55:14.860Z,20.20
2022-12-08T10:56:19.368Z,16.55
2022-12-08T10:57:23.990Z,18.88
2022-12-08T10:58:35.836Z,15.05
2022-12-08T10:59:43.656Z,16.40
2022-12-08T11:00:46.501Z,15.07
2022-12-08T11:01:52.463Z,14.60
2022-12-08T11:03:00.530Z,18.45
2022-12-08T11:04:05.609Z,21.15
2022-12-08T11:05:17.940Z,16.17
2022-12-08T11:06:24.858Z,15.68
2022-12-08T11:07:29.219Z,15.85
2022-12-08T11:08:32.191Z,20.17
2022-12-08T11:09:46.930Z,16.83
2022-12-08T11:10:49.947Z,18.08
2022-12-08T11:11:55.967Z,18.67
2022-12-08T11:13:02.220Z,19.27
2022-12-08T11:14:08.092Z,15.63
2022-12-08T11:15:16.664Z,16.42
2022-12-08T11:16:21.565Z,17.20
2022-12-08T11:17:26.556Z,20.05
2022-12-08T11:18:31.589Z,17.48
2022-12-08T11:19:39.031Z,17.48
2022-12-08T11:20:43.182Z,16.95
2022-12-08T11:21:47.446Z,15.70
2022-12-08T11:22:53.369Z,17.38
2022-12-08T11:23:57.094Z,13.18
2022-12-08T11:25:03.800Z,15.00
2022-12-08T11:26:15.129Z,16.92
2022-12-08T11:27:17.899Z,14.20
2022-12-08T11:28:25.171Z,13.07
2022-12-08T11:29:30.903Z,17.60
2022-12-08T11:30:37.299Z,14.80
2022-12-08T11:31:42.822Z,14.80
2022-12-08T11:32:46.907Z,14.25
2022-12-08T11:33:51.499Z,13.10
2022-12-08T11:34:56.823Z,14.10
2022-12-08T11:36:05.479Z,15.65
2022-12-08T11:37:14.480Z,17.40
2022-12-08T11:38:22.790Z,14.85
2022-12-08T11:39:28.069Z,13.88
2022-12-08T11:40:36.289Z,15.45
2022-12-08T11:41:42.084Z,11.38
2022-12-08T11:42:52.619Z,11.68
2022-12-08T11:44:00.708Z,10.65
2022-12-08T11:45:08.125Z,11.30
2022-12-08T11:46:16.532Z,10.25
2022-12-08T11:47:23.890Z,13.57
2022-12-08T11:48:33.511Z,10.73
2022-12-08T11:49:39.838Z,9.15
2022-12-08T11:50:45.920Z,10.60
2022-12-08T11:51:54.820Z,10.70
2022-12-08T11:52:58.994Z,9.85
2022-12-08T11:54:18.816Z,7.68
2022-12-08T11:55:37.293Z,9.52
2022-12-08T11:56:46.940Z,8.95
2022-12-08T11:57:49.612Z,7.85
2022-12-08T11:58:57.011Z,6.47
2022-12-08T12:00:02.842Z,8.65
2022-12-08T12:01:20.472Z,7.38
2022-12-08T12:02:26.802Z,7.03
2022-12-08T12:03:33.385Z,4.95
2022-12-08T12:04:40.277Z,6.13
2022-12-08T12:06:13.115Z,6.53
2022-12-08T12:07:38.198Z,6.40
2022-12-08T12:08:47.544Z,6.32
2022-12-08T12:10:07.162Z,6.30
2022-12-08T12:11:38.316Z,5.75
2022-12-08T12:12:52.875Z,7.30
2022-12-08T12:14:02.481Z,7.40
2022-12-08T12:15:41.663Z,5.90
2022-12-08T12:16:55.885Z,6.63
2022-12-08T12:18:01.732Z,9.27
2022-12-08T12:19:07.258Z,7.68
2022-12-08T12:20:16.207Z,8.35
2022-12-08T12:21:22.352Z,7.95
2022-12-08T12:22:25.886Z,6.72
2022-12-08T12:23:36.698Z,6.78
2022-12-08T12:24:40.937Z,8.57
2022-12-08T12:25:49.637Z,7.13
2022-12-08T12:27:00.437Z,6.88
2022-12-08T12:28:06.365Z,7.20
2022-12-08T12:29:16.685Z,7.38
2022-12-08T12:30:22.983Z,7.68
2022-12-08T12:31:28.269Z,6.85
2022-12-08T12:32:43.204Z,7.00
2022-12-08T12:33:48.258Z,7.05
2022-12-08T12:34:54.528Z,7.82
2022-12-08T12:35:57.905Z,7.13
2022-12-08T12:37:07.668Z,6.97
2022-12-08T12:38:39.643Z,7.80
2022-12-08T12:39:50.577Z,8.23
2022-12-08T12:40:59.555Z,7.90
2022-12-08T12:42:06.634Z,8.43
2022-12-08T12:43:14.986Z,6.22
2022-12-08T12:44:38.219Z,7.03
2022-12-08T12:45:44.122Z,7.63
2022-12-08T12:46:58.971Z,7.25
2022-12-08T12:48:22.516Z,6.07
2022-12-08T12:49:51.814Z,7.10
2022-12-08T12:50:57.110Z,8.75
2022-12-08T12:51:59.854Z,6.72
2022-12-08T12:53:10.625Z,8.02
2022-12-08T12:54:24.388Z,6.55
2022-12-08T12:55:53.292Z,8.43
2022-12-08T12:56:57.837Z,9.30
2022-12-08T12:58:16.553Z,10.85
2022-12-08T12:59:42.686Z,6.93
2022-12-08T13:00:46.444Z,9.98
2022-12-08T13:01:56.229Z,8.20
2022-12-08T13:03:00.642Z,11.15
2022-12-08T13:04:06.054Z,8.75
2022-12-08T13:05:12.300Z,8.43
2022-12-08T13:06:16.122Z,9.00
2022-12-08T13:07:22.282Z,8.77
2022-12-08T13:08:28.004Z,8.90
2022-12-08T13:09:37.312Z,11.57
2022-12-08T13:10:42.026Z,9.45
2022-12-08T13:11:50.424Z,9.90
2022-12-08T13:13:07.838Z,8.77
2022-12-08T13:14:27.066Z,9.80
2022-12-08T13:15:36.242Z,9.38
2022-12-08T13:16:40.005Z,9.23
2022-12-08T13:17:46.414Z,9.75
2022-12-08T13:18:51.335Z,9.55
2022-12-08T13:19:57.909Z,9.90
2022-12-08T13:21:06.385Z,10.32
2022-12-08T13:22:47.336Z,9.68
2022-12-08T13:23:53.383Z,9.00
2022-12-08T13:25:49.962Z,8.15
2022-12-08T13:27:30.093Z,8.05
2022-12-08T13:28:35.498Z,9.75
2022-12-08T13:29:39.654Z,10.02
2022-12-08T13:30:44.377Z,10.25
2022-12-08T13:31:51.395Z,13.27
2022-12-08T13:34:24.043Z,10.50
2022-12-08T13:35:26.985Z,9.80
2022-12-08T13:36:34.513Z,9.93
2022-12-08T13:37:54.325Z,10.23
2022-12-08T13:38:59.991Z,10.65
2022-12-08T13:40:05.938Z,8.75
2022-12-08T13:41:18.121Z,12.02
2022-12-08T13:42:25.710Z,9.23
2022-12-08T13:43:51.057Z,10.27
2022-12-08T13:45:48.751Z,10.50
2022-12-08T13:48:26.644Z,8.98
2022-12-08T13:51:23.606Z,6.53
2022-12-08T13:56:44.008Z,10.45
2022-12-08T13:57:11.955Z,8.73
2022-12-08T13:58:20.196Z,9.88
2022-12-08T13:59:30.956Z,13.27
2022-12-08T14:00:33.889Z,9.25
2022-12-08T14:01:45.139Z,9.32
2022-12-08T14:02:50.024Z,10.38
2022-12-08T14:05:40.798Z,11.40
2022-12-08T14:06:46.624Z,12.63
2022-12-08T14:07:52.854Z,12.18
2022-12-08T14:09:01.474Z,12.32
2022-12-08T14:10:10.477Z,13.40
2022-12-08T14:11:33.687Z,15.45
2022-12-08T14:12:38.202Z,15.18
2022-12-08T14:13:40.913Z,14.27
2022-12-08T14:15:03.826Z,18.20
2022-12-08T14:16:12.923Z,14.70
2022-12-08T14:17:19.415Z,17.10
2022-12-08T14:18:25.346Z,15.18
2022-12-08T14:19:30.262Z,15.02
2022-12-08T14:20:57.813Z,13.32
2022-12-08T14:22:01.333Z,11.88
2022-12-08T14:23:08.685Z,13.27
2022-12-08T14:24:12.249Z,11.88
2022-12-08T14:25:17.866Z,11.18
2022-12-08T14:26:25.264Z,11.70
2022-12-08T14:27:34.541Z,9.77
2022-12-08T14:28:44.408Z,12.13
2022-12-08T14:29:52.383Z,14.27